createdAt,value
2023-03-12T04:19:08.892Z,82.68
2023-03-12T04:22:05.639Z,82.22
2023-03-12T04:24:28.348Z,82.19
2023-03-12T04:27:03.231Z,81.99
2023-03-12T04:34:54.202Z,82.07
2023-03-12T04:37:35.451Z,82.59
2023-03-12T04:40:17.725Z,82.54
2023-03-12T04:42:45.906Z,82.26
2023-03-12T04:45:16.814Z,82.36
2023-03-12T04:47:46.130Z,82.13
2023-03-12T04:50:13.702Z,82.40
2023-03-12T04:53:03.793Z,82.20
2023-03-12T04:56:48.102Z,82.35
2023-03-12T04:58:18.625Z,82.20
2023-03-12T05:01:23.688Z,82.12
2023-03-12T05:03:39.993Z,82.03
2023-03-12T05:06:10.516Z,81.90
2023-03-12T05:08:41.289Z,82.71
2023-03-12T05:11:10.239Z,82.61
2023-03-12T05:13:39.275Z,82.62
2023-03-12T05:16:08.515Z,82.25
2023-03-12T05:18:46.992Z,81.84
2023-03-12T05:21:14.198Z,81.89
2023-03-12T05:23:46.013Z,81.38
2023-03-12T05:26:14.354Z,81.20
2023-03-12T05:28:45.247Z,81.39
2023-03-12T05:31:15.596Z,82.03
2023-03-12T05:33:51.031Z,81.60
2023-03-12T05:36:20.820Z,82.49
2023-03-12T05:38:50.215Z,82.43
2023-03-12T05:41:26.185Z,82.30
2023-03-12T05:43:53.659Z,82.63
2023-03-12T05:46:22.329Z,82.25
2023-03-12T05:48:51.366Z,82.16
2023-03-12T05:51:18.548Z,81.87
2023-03-12T05:53:49.231Z,82.22
2023-03-12T05:56:35.067Z,81.75
2023-03-12T05:59:04.279Z,81.97
2023-03-12T06:01:30.956Z,81.51
2023-03-12T06:03:59.584Z,81.30
2023-03-12T06:06:28.642Z,81.37
2023-03-12T06:08:56.757Z,81.69
2023-03-12T06:11:25.307Z,81.78
2023-03-12T06:13:52.858Z,82.21
2023-03-12T06:16:21.567Z,81.82
2023-03-12T06:18:49.061Z,81.87
2023-03-12T06:21:22.636Z,82.31
2023-03-12T06:23:54.300Z,82.36
2023-03-12T06:26:23.432Z,81.71
2023-03-12T06:28:50.516Z,80.63
2023-03-12T06:31:20.219Z,81.84
2023-03-12T06:34:00.794Z,81.24
2023-03-12T06:36:28.341Z,81.92
2023-03-12T06:38:57.388Z,81.31
2023-03-12T06:41:25.613Z,81.64
2023-03-12T06:43:54.912Z,81.39
2023-03-12T06:46:35.236Z,80.60
2023-03-12T06:49:03.420Z,80.86
2023-03-12T06:51:31.006Z,81.25
2023-03-12T06:54:02.592Z,81.08
2023-03-12T06:56:33.279Z,81.47
2023-03-12T06:59:12.900Z,81.66
2023-03-12T07:01:46.502Z,81.89
2023-03-12T07:04:16.165Z,81.96
2023-03-12T07:06:53.248Z,82.41
2023-03-12T07:09:22.334Z,81.93
2023-03-12T07:11:51.951Z,81.97
2023-03-12T07:14:22.197Z,81.88
2023-03-12T07:19:57.009Z,81.28
2023-03-12T07:23:02.736Z,81.52
2023-03-12T07:28:10.910Z,81.47
2023-03-12T07:33:40.548Z,81.38
2023-03-12T07:50:26.977Z,80.69
2023-03-12T07:52:50.625Z,80.64
2023-03-12T07:55:19.591Z,79.98
2023-03-12T07:57:49.235Z,79.89
2023-03-12T08:00:17.712Z,79.73
2023-03-12T08:02:46.670Z,79.33
2023-03-12T08:05:14.925Z,79.89
2023-03-12T08:08:01.027Z,79.94
2023-03-12T08:15:59.133Z,79.53
2023-03-12T10:09:30.229Z,70.59
2023-03-12T10:17:33.152Z,75.32
2023-03-12T10:20:05.334Z,75.09
2023-03-12T19:55:36.886Z,54.84
2023-03-12T19:58:03.331Z,54.66
2023-03-12T20:00:29.767Z,55.27
2023-03-12T20:02:57.029Z,54.86
2023-03-12T20:05:24.505Z,54.23
2023-03-12T20:07:52.097Z,54.49
2023-03-12T20:10:18.700Z,54.62
2023-03-12T20:12:46.286Z,54.12
2023-03-12T20:15:13.857Z,54.25
2023-03-12T20:17:40.442Z,53.86
2023-03-12T20:20:07.310Z,53.33
2023-03-12T20:22:33.720Z,52.79
2023-03-12T20:25:00.198Z,51.49
2023-03-12T20:27:27.798Z,51.55
2023-03-12T20:29:54.278Z,50.17
2023-03-12T20:32:21.014Z,48.55
2023-03-12T20:34:47.865Z,48.54
2023-03-12T20:37:14.331Z,48.21
2023-03-12T20:39:40.806Z,47.46
2023-03-12T20:42:08.375Z,47.49
2023-03-12T20:44:34.838Z,48.89
2023-03-12T20:47:01.302Z,49.93
2023-03-12T20:49:27.748Z,50.40
2023-03-12T20:51:55.749Z,49.75
2023-03-12T20:54:23.337Z,49.95
2023-03-12T20:56:49.963Z,51.18
2023-03-12T20:59:16.477Z,49.78
2023-03-12T21:01:43.202Z,48.54
2023-03-12T21:04:10.821Z,49.20
2023-03-12T21:06:38.391Z,49.96
2023-03-12T21:09:06.033Z,50.98
2023-03-12T21:11:33.572Z,50.76
2023-03-12T21:14:00.456Z,50.34
2023-03-12T21:16:26.992Z,50.79
2023-03-12T21:18:53.462Z,51.10
2023-03-12T21:21:21.065Z,52.24
2023-03-12T21:23:49.733Z,50.62
2023-03-12T21:26:17.241Z,52.34
2023-03-12T21:28:43.840Z,52.16
2023-03-12T21:31:12.488Z,53.58
2023-03-12T21:33:39.220Z,54.86
2023-03-12T21:36:06.808Z,55.74
2023-03-12T21:38:34.405Z,56.51
2023-03-12T21:41:01.994Z,57.00
2023-03-12T21:43:30.595Z,57.74
2023-03-12T21:45:57.207Z,58.29
2023-03-12T21:48:24.783Z,59.11
2023-03-12T21:50:52.380Z,58.67
2023-03-12T21:53:24.080Z,58.75
2023-03-12T21:55:51.794Z,58.80
2023-03-12T21:58:19.194Z,58.73
2023-03-12T22:00:45.679Z,59.66
2023-03-12T22:03:12.112Z,59.17
2023-03-12T22:05:38.949Z,58.28
2023-03-12T22:08:05.596Z,59.51
2023-03-12T22:10:32.172Z,59.95
2023-03-12T22:12:59.793Z,59.81
2023-03-12T22:15:27.352Z,59.66
2023-03-12T22:17:55.956Z,59.53
2023-03-12T22:20:23.563Z,59.79
2023-03-12T22:22:51.184Z,59.37
2023-03-12T22:25:17.774Z,58.99
2023-03-12T22:27:44.366Z,59.85
2023-03-12T22:30:12.981Z,59.24
2023-03-12T22:32:39.652Z,59.82
2023-03-12T22:35:06.072Z,60.98
2023-03-12T22:37:32.513Z,60.99
2023-03-12T22:39:58.997Z,60.98
2023-03-12T22:42:25.420Z,60.67
2023-03-12T22:44:51.937Z,60.60
2023-03-12T22:47:19.253Z,60.60
2023-03-12T22:49:46.843Z,60.28
2023-03-12T22:52:14.419Z,60.12
2023-03-12T22:54:42.030Z,60.27
2023-03-12T22:57:08.667Z,60.17
2023-03-12T22:59:36.227Z,60.36
2023-03-12T23:02:02.740Z,59.82
2023-03-12T23:04:29.254Z,59.32
2023-03-12T23:07:11.298Z,59.23
2023-03-12T23:09:40.010Z,59.01
2023-03-12T23:12:07.221Z,58.69
2023-03-12T23:14:34.829Z,58.71
2023-03-12T23:17:01.409Z,58.90
2023-03-12T23:19:28.985Z,58.90
2023-03-12T23:21:55.584Z,58.58
2023-03-12T23:24:22.448Z,59.30
2023-03-12T23:26:48.924Z,58.67
2023-03-12T23:29:15.372Z,58.53
2023-03-12T23:31:42.019Z,57.88
2023-03-12T23:34:10.580Z,58.42
2023-03-12T23:36:37.187Z,59.09
2023-03-12T23:39:04.792Z,58.50
2023-03-12T23:41:31.384Z,58.00
2023-03-12T23:43:58.970Z,58.44
2023-03-12T23:46:26.582Z,58.45
2023-03-12T23:48:53.239Z,57.55
2023-03-12T23:51:20.855Z,58.16
2023-03-12T23:53:48.447Z,58.44
2023-03-12T23:56:16.022Z,57.69
2023-03-12T23:58:42.646Z,58.20
